地図

経路データ

SID SEASON NUMBER BASIN SUBBASIN NAME ISO_TIME NATURE LAT LON WMO_WIND WMO_PRES WMO_AGENCY TRACK_TYPE DIST2LAND LANDFALL IFLAG USA_AGENCY USA_ATCF_ID USA_LAT USA_LON USA_RECORD USA_STATUS USA_WIND USA_PRES USA_SSHS USA_R34_NE USA_R34_SE USA_R34_SW USA_R34_NW USA_R50_NE USA_R50_SE USA_R50_SW USA_R50_NW USA_R64_NE USA_R64_SE USA_R64_SW USA_R64_NW USA_POCI USA_ROCI USA_RMW USA_EYE TOKYO_LAT TOKYO_LON TOKYO_GRADE TOKYO_WIND TOKYO_PRES TOKYO_R50_DIR TOKYO_R50_LONG TOKYO_R50_SHORT TOKYO_R30_DIR TOKYO_R30_LONG TOKYO_R30_SHORT TOKYO_LAND CMA_LAT CMA_LON CMA_CAT CMA_WIND CMA_PRES HKO_LAT HKO_LON HKO_CAT HKO_WIND HKO_PRES NEWDELHI_LAT NEWDELHI_LON NEWDELHI_GRADE NEWDELHI_WIND NEWDELHI_PRES NEWDELHI_CI NEWDELHI_DP NEWDELHI_POCI REUNION_LAT REUNION_LON REUNION_TYPE REUNION_WIND REUNION_PRES REUNION_TNUM REUNION_CI REUNION_RMW REUNION_R34_NE REUNION_R34_SE REUNION_R34_SW REUNION_R34_NW REUNION_R50_NE REUNION_R50_SE REUNION_R50_SW REUNION_R50_NW REUNION_R64_NE REUNION_R64_SE REUNION_R64_SW REUNION_R64_NW BOM_LAT BOM_LON BOM_TYPE BOM_WIND BOM_PRES BOM_TNUM BOM_CI BOM_RMW BOM_R34_NE BOM_R34_SE BOM_R34_SW BOM_R34_NW BOM_R50_NE BOM_R50_SE BOM_R50_SW BOM_R50_NW BOM_R64_NE BOM_R64_SE BOM_R64_SW BOM_R64_NW BOM_ROCI BOM_POCI BOM_EYE BOM_POS_METHOD BOM_PRES_METHOD NADI_LAT NADI_LON NADI_CAT NADI_WIND NADI_PRES WELLINGTON_LAT WELLINGTON_LON WELLINGTON_WIND WELLINGTON_PRES DS824_LAT DS824_LON DS824_STAGE DS824_WIND DS824_PRES TD9636_LAT TD9636_LON TD9636_STAGE TD9636_WIND TD9636_PRES TD9635_LAT TD9635_LON TD9635_WIND TD9635_PRES TD9635_ROCI NEUMANN_LAT NEUMANN_LON NEUMANN_CLASS NEUMANN_WIND NEUMANN_PRES MLC_LAT MLC_LON MLC_CLASS MLC_WIND MLC_PRES USA_GUST BOM_GUST BOM_GUST_PER REUNION_GUST REUNION_GUST_PER USA_SEAHGT USA_SEARAD_NE USA_SEARAD_SE USA_SEARAD_SW USA_SEARAD_NW STORM_SPEED STORM_DIR
1914222N18131 1914 23 WP MM NOT_NAMED 1914-08-10 10:00:00 NR 18.1000 131.200 main 865 856 __________O___ -1 18.1000 131.200 7 4 286
1914222N18131 1914 23 WP MM NOT_NAMED 1914-08-10 12:00:00 NR 18.1334 131.081 main 856 845 __________P___ -1 18.1334 131.081 7 4 286
1914222N18131 1914 23 WP MM NOT_NAMED 1914-08-10 15:00:00 NR 18.1834 130.897 main 845 827 __________P___ -1 18.1834 130.897 7 4 285
1914222N18131 1914 23 WP MM NOT_NAMED 1914-08-10 18:00:00 NR 18.2334 130.699 main 827 816 __________P___ -1 18.2334 130.699 7 4 284
1914222N18131 1914 23 WP MM NOT_NAMED 1914-08-10 21:00:00 NR 18.2834 130.479 main 816 808 __________P___ -1 18.2834 130.479 7 4 283
1914222N18131 1914 23 WP MM NOT_NAMED 1914-08-10 22:00:00 NR 18.3000 130.400 main 808 791 __________O___ -1 18.3000 130.400 4 5 282
1914222N18131 1914 23 WP MM NOT_NAMED 1914-08-11 00:00:00 NR 18.3333 130.231 main 791 781 __________P___ -1 18.3333 130.231 4 5 281
1914222N18131 1914 23 WP MM NOT_NAMED 1914-08-11 03:00:00 NR 18.3832 129.952 main 781 749 __________P___ -1 18.3832 129.952 4 6 280
1914222N18131 1914 23 WP MM NOT_NAMED 1914-08-11 06:00:00 NR 18.4331 129.645 main 749 733 __________P___ -1 18.4331 129.645 4 6 279
1914222N18131 1914 23 WP MM NOT_NAMED 1914-08-11 09:00:00 NR 18.4833 129.315 main 733 726 __________P___ -1 18.4833 129.315 4 6 279
1914222N18131 1914 23 WP MM NOT_NAMED 1914-08-11 10:00:00 NR 18.5000 129.200 main 726 706 __________O___ -1 18.5000 129.200 4 7 278
1914222N18131 1914 23 WP MM NOT_NAMED 1914-08-11 12:00:00 NR 18.5307 128.964 main 706 664 __________P___ -1 18.5307 128.964 4 7 278
1914222N18131 1914 23 WP MM NOT_NAMED 1914-08-11 15:00:00 NR 18.5768 128.592 main 664 622 __________P___ -1 18.5768 128.592 4 7 278
1914222N18131 1914 23 WP MM NOT_NAMED 1914-08-11 18:00:00 NR 18.6255 128.208 main 622 580 __________P___ -1 18.6255 128.208 4 7 278
1914222N18131 1914 23 WP MM NOT_NAMED 1914-08-11 21:00:00 NR 18.6800 127.825 main 580 570 __________P___ -1 18.6800 127.825 4 7 279
1914222N18131 1914 23 WP MM NOT_NAMED 1914-08-11 22:00:00 NR 18.7000 127.700 main 570 549 __________O___ -1 18.7000 127.700 4 7 280
1914222N18131 1914 23 WP MM NOT_NAMED 1914-08-12 00:00:00 NR 18.7415 127.458 main 549 507 __________P___ -1 18.7415 127.458 4 7 281
1914222N18131 1914 23 WP MM NOT_NAMED 1914-08-12 03:00:00 NR 18.8102 127.102 main 507 477 __________P___ -1 18.8102 127.102 4 7 282
1914222N18131 1914 23 WP MM NOT_NAMED 1914-08-12 06:00:00 NR 18.8864 126.753 main 477 437 __________P___ -1 18.8864 126.753 4 7 284
1914222N18131 1914 23 WP MM NOT_NAMED 1914-08-12 09:00:00 NR 18.9703 126.412 main 437 426 __________P___ -1 18.9703 126.412 4 7 285
1914222N18131 1914 23 WP MM NOT_NAMED 1914-08-12 10:00:00 NR 19.0000 126.300 main 426 405 __________O___ -1 19.0000 126.300 4 6 286
1914222N18131 1914 23 WP MM NOT_NAMED 1914-08-12 12:00:00 NR 19.0581 126.085 main 407 376 __________P___ -1 19.0581 126.085 4 6 287
1914222N18131 1914 23 WP MM NOT_NAMED 1914-08-12 15:00:00 NR 19.1515 125.770 main 379 348 __________P___ -1 19.1515 125.770 4 6 288
1914222N18131 1914 23 WP MM NOT_NAMED 1914-08-12 18:00:00 NR 19.2528 125.451 main 351 315 __________P___ -1 19.2528 125.451 4 7 289
1914222N18131 1914 23 WP MM NOT_NAMED 1914-08-12 21:00:00 NR 19.3619 125.117 main 315 305 __________P___ -1 19.3619 125.117 4 7 289
1914222N18131 1914 23 WP MM NOT_NAMED 1914-08-12 22:00:00 NR 19.4000 125.000 main 305 280 __________O___ -1 19.4000 125.000 4 8 287
1914222N18131 1914 23 WP MM NOT_NAMED 1914-08-13 00:00:00 NR 19.4725 124.737 main 280 249 __________P___ -1 19.4725 124.737 4 8 286
1914222N18131 1914 23 WP MM NOT_NAMED 1914-08-13 03:00:00 NR 19.5875 124.324 main 249 222 __________P___ -1 19.5875 124.324 4 8 287
1914222N18131 1914 23 WP MM NOT_NAMED 1914-08-13 06:00:00 NR 19.7124 123.910 main 222 201 __________P___ -1 19.7124 123.910 4 8 289
1914222N18131 1914 23 WP MM NOT_NAMED 1914-08-13 09:00:00 NR 19.8505 123.520 main 209 203 __________P___ -1 19.8505 123.520 4 8 291
1914222N18131 1914 23 WP MM NOT_NAMED 1914-08-13 10:00:00 NR 19.9000 123.400 main 203 197 __________O___ -1 19.9000 123.400 4 7 296
1914222N18131 1914 23 WP MM NOT_NAMED 1914-08-13 12:00:00 NR 20.0022 123.198 main 202 197 __________P___ -1 20.0022 123.198 4 6 301
1914222N18131 1914 23 WP MM NOT_NAMED 1914-08-13 15:00:00 NR 20.1683 122.928 main 210 208 __________P___ -1 20.1683 122.928 4 6 305
1914222N18131 1914 23 WP MM NOT_NAMED 1914-08-13 18:00:00 NR 20.3471 122.671 main 216 220 __________P___ -1 20.3471 122.671 4 6 307
1914222N18131 1914 23 WP MM NOT_NAMED 1914-08-13 21:00:00 NR 20.5356 122.399 main 220 205 __________P___ -1 20.5356 122.399 4 6 306
1914222N18131 1914 23 WP MM NOT_NAMED 1914-08-13 22:00:00 NR 20.6000 122.300 main 205 182 __________O___ -1 20.6000 122.300 4 7 303
1914222N18131 1914 23 WP MM NOT_NAMED 1914-08-14 00:00:00 NR 20.7356 122.070 main 182 139 __________P___ -1 20.7356 122.070 4 8 302
1914222N18131 1914 23 WP MM NOT_NAMED 1914-08-14 03:00:00 NR 20.9453 121.701 main 139 88 __________P___ -1 20.9453 121.701 4 8 300
1914222N18131 1914 23 WP MM NOT_NAMED 1914-08-14 06:00:00 NR 21.1517 121.314 main 88 67 __________P___ -1 21.1517 121.314 4 8 299
1914222N18131 1914 23 WP MM NOT_NAMED 1914-08-14 09:00:00 NR 21.3422 120.927 main 67 55 __________P___ -1 21.3422 120.927 4 8 297
1914222N18131 1914 23 WP MM NOT_NAMED 1914-08-14 10:00:00 NR 21.4000 120.800 main 55 44 __________O___ -1 21.4000 120.800 4 7 296
1914222N18131 1914 23 WP MM NOT_NAMED 1914-08-14 12:00:00 NR 21.4946 120.584 main 45 45 __________P___ -1 21.4946 120.584 4 7 294
1914222N18131 1914 23 WP MM NOT_NAMED 1914-08-14 15:00:00 NR 21.6177 120.267 main 53 56 __________P___ -1 21.6177 120.267 4 7 291
1914222N18131 1914 23 WP MM NOT_NAMED 1914-08-14 18:00:00 NR 21.7325 119.931 main 85 83 __________P___ -1 21.7325 119.931 4 7 289
1914222N18131 1914 23 WP MM NOT_NAMED 1914-08-14 21:00:00 NR 21.8549 119.545 main 106 106 __________P___ -1 21.8549 119.545 4 8 289
1914222N18131 1914 23 WP MM NOT_NAMED 1914-08-14 22:00:00 NR 21.9000 119.400 main 114 114 __________O___ -1 21.9000 119.400 4 9 289
1914222N18131 1914 23 WP MM NOT_NAMED 1914-08-15 00:00:00 NR 22.0108 119.066 main 135 144 __________P___ -1 22.0108 119.066 4 11 289
1914222N18131 1914 23 WP MM NOT_NAMED 1914-08-15 03:00:00 NR 22.1896 118.507 main 187 147 __________P___ -1 22.1896 118.507 4 11 289
1914222N18131 1914 23 WP MM NOT_NAMED 1914-08-15 06:00:00 NR 22.3721 117.908 main 147 93 __________P___ -1 22.3721 117.908 4 12 288
1914222N18131 1914 23 WP MM NOT_NAMED 1914-08-15 09:00:00 NR 22.5460 117.299 main 93 70 __________P___ -1 22.5460 117.299 4 12 287
1914222N18131 1914 23 WP MM NOT_NAMED 1914-08-15 10:00:00 NR 22.6000 117.100 main 70 30 __________O___ -1 22.6000 117.100 4 11 286
1914222N18131 1914 23 WP MM NOT_NAMED 1914-08-15 12:00:00 NR 22.7004 116.711 main 30 10 __________P___ -1 22.7004 116.711 4 11 285
1914222N18131 1914 23 WP MM NOT_NAMED 1914-08-15 15:00:00 NR 22.8345 116.150 main 10 0 __________P___ -1 22.8345 116.150 4 10 284
1914222N18131 1914 23 WP MM NOT_NAMED 1914-08-15 18:00:00 NR 22.9539 115.608 main 0 0 __________P___ -1 22.9539 115.608 4 10 283
1914222N18131 1914 23 WP MM NOT_NAMED 1914-08-15 21:00:00 NR 23.0643 115.076 main 0 0 __________P___ -1 23.0643 115.076 4 10 283
1914222N18131 1914 23 WP MM NOT_NAMED 1914-08-15 22:00:00 NR 23.1000 114.900 main 0 __________O___ -1 23.1000 114.900 2 10 282

デジタル台風データ・検索

IBTrACS Databaseについて

本データベースは、米国NOAAが公開する1842年以降の世界の熱帯低気圧のベストトラックデータアーカイブInternational Best Track Archive for Climate Stewardship (IBTrACS)を、ウェブで閲覧しやすい形式に変換したものです。

最終更新日:2021-12-01